Doris — 9HA2632 — position and weather

sailwx.info

Track history (hours):
 
Tides and Currents Weather Stations Pressure Air Temp Water Temp Dewpoint Dewpoint Depression Visibility Wind Speed Wind Dir Waves Ship Positions

Doris

Last reported at 2016-May-04 23:34 UTC. Time now 2016-May-06 03:37 UTC.
Position S 38°26' E 150°14'.

Length 182 m; draft 6.4 m.

Type: Cargo ship. MMSI: 215080000.

Date/timePositionNaut miles runAvg speedWind from/ knotsBaromVisibWave heightAir tempDewpointWater temp
2016-May-04 23:34S 38°26' E 150°14'1515.0
2016-May-04 22:33S 38°30' E 149°56'1515.2
2016-May-04 21:33S 38°34' E 149°37'2114.4
2016-May-04 20:07S 38°39' E 149°11'8214.2
2016-May-04 14:20S 39°00' E 147°29'1214.8
2016-May-04 13:33S 39°04' E 147°15'1414.2
2016-May-04 12:33S 39°09' E 146°58'1414.0
2016-May-04 11:33S 39°14' E 146°41'1413.7
2016-May-04 10:33S 39°17' E 146°24'1413.4
2016-May-04 09:32S 39°14' E 146°07'  
2016-Apr-28 15:29S 38°44' E 145°20'1212.8
2016-Apr-28 14:33S 38°51' E 145°32'1313.4
2016-Apr-28 13:34S 38°58' E 145°47'1313.5
2016-Apr-28 12:34S 39°05' E 146°02'1313.2
2016-Apr-28 11:34S 39°12' E 146°16'1312.7
2016-Apr-28 10:34S 39°09' E 146°32'1312.5
2016-Apr-28 09:34S 39°05' E 146°47'1212.2
2016-Apr-28 08:34S 39°01' E 147°02'8213.2
2016-Apr-28 02:20S 38°30' E 148°40'1013.3
2016-Apr-28 01:33S 38°24' E 148°51'1312.9
2016-Apr-28 00:33S 38°17' E 149°04'1313.1
2016-Apr-27 23:33S 38°09' E 149°18'1313.1
2016-Apr-27 22:33S 38°02' E 149°32'1313.0
2016-Apr-27 21:33S 37°54' E 149°45'1313.3
2016-Apr-27 20:33S 37°48' E 149°60'1313.1
2016-Apr-27 19:34S 37°39' E 150°12'1313.4
2016-Apr-27 18:34S 37°26' E 150°17'1414.1
2016-Apr-27 17:33S 37°12' E 150°21'1414.0
2016-Apr-27 16:34S 36°59' E 150°25'1413.6
2016-Apr-27 15:34S 36°45' E 150°30'1413.6
2016-Apr-27 14:34S 36°32' E 150°34'1413.9
2016-Apr-27 13:34S 36°19' E 150°38'1414.1
2016-Apr-27 12:33S 36°05' E 150°42'1413.9
2016-Apr-27 11:33S 35°52' E 150°46'1413.9
2016-Apr-27 10:33S 35°38' E 150°51'1413.8
2016-Apr-27 09:30S 35°24' E 150°56'  
Track history (hours):
 
Tides and Currents Weather Stations Pressure Air Temp Water Temp Dewpoint Dewpoint Depression Visibility Wind Speed Wind Dir Waves Ship Positions

Doris

Last reported at 2016-May-04 23:34 UTC. Time now 2016-May-06 03:37 UTC.
Position S 38°26' E 150°14'.

Length 182 m; draft 6.4 m.

Type: Cargo ship. MMSI: 215080000.

Date/timePositionNaut miles runAvg speedWind from/ knotsBaromVisibWave heightAir tempDewpointWater temp
2016-May-04 23:34S 38°26' E 150°14'1515.0
2016-May-04 22:33S 38°30' E 149°56'1515.2
2016-May-04 21:33S 38°34' E 149°37'2114.4
2016-May-04 20:07S 38°39' E 149°11'8214.2
2016-May-04 14:20S 39°00' E 147°29'1214.8
2016-May-04 13:33S 39°04' E 147°15'1414.2
2016-May-04 12:33S 39°09' E 146°58'1414.0
2016-May-04 11:33S 39°14' E 146°41'1413.7
2016-May-04 10:33S 39°17' E 146°24'1413.4
2016-May-04 09:32S 39°14' E 146°07'  
2016-Apr-28 15:29S 38°44' E 145°20'1212.8
2016-Apr-28 14:33S 38°51' E 145°32'1313.4
2016-Apr-28 13:34S 38°58' E 145°47'1313.5
2016-Apr-28 12:34S 39°05' E 146°02'1313.2
2016-Apr-28 11:34S 39°12' E 146°16'1312.7
2016-Apr-28 10:34S 39°09' E 146°32'1312.5
2016-Apr-28 09:34S 39°05' E 146°47'1212.2
2016-Apr-28 08:34S 39°01' E 147°02'8213.2
2016-Apr-28 02:20S 38°30' E 148°40'1013.3
2016-Apr-28 01:33S 38°24' E 148°51'1312.9
2016-Apr-28 00:33S 38°17' E 149°04'1313.1
2016-Apr-27 23:33S 38°09' E 149°18'1313.1
2016-Apr-27 22:33S 38°02' E 149°32'1313.0
2016-Apr-27 21:33S 37°54' E 149°45'1313.3
2016-Apr-27 20:33S 37°48' E 149°60'1313.1
2016-Apr-27 19:34S 37°39' E 150°12'1313.4
2016-Apr-27 18:34S 37°26' E 150°17'1414.1
2016-Apr-27 17:33S 37°12' E 150°21'1414.0
2016-Apr-27 16:34S 36°59' E 150°25'1413.6
2016-Apr-27 15:34S 36°45' E 150°30'1413.6
2016-Apr-27 14:34S 36°32' E 150°34'1413.9
2016-Apr-27 13:34S 36°19' E 150°38'1414.1
2016-Apr-27 12:33S 36°05' E 150°42'1413.9
2016-Apr-27 11:33S 35°52' E 150°46'1413.9
2016-Apr-27 10:33S 35°38' E 150°51'1413.8
2016-Apr-27 09:30S 35°24' E 150°56'  

Dump ship's entire track history